DIFLI EDDS-EDDS

Flight info

Callsign DIFLI
Flight time 0h 12m
Altitude
Route
Aircraft DA42

Departure

Time 2026-05-07 15:20
Airport Stuttgart Airport (EDDS)

Arrival

Time 2026-05-07 15:32
Airport Stuttgart Airport (EDDS)
Time Latitude Longitude Altitude Speed Heading
2026-05-07 15:08 48.69170 9.21487 1280 ft 0 kts 315°
2026-05-07 15:11 48.69176 9.21434 1280 ft 0 kts 249°
2026-05-07 15:11 48.69176 9.21433 1280 ft 2 kts 250°
2026-05-07 15:11 48.69156 9.21329 1280 ft 14 kts 255°
2026-05-07 15:11 48.69147 9.21262 1280 ft 8 kts 307°
2026-05-07 15:12 48.69134 9.21125 1280 ft 16 kts 260°
2026-05-07 15:12 48.69101 9.21011 1280 ft 7 kts 160°
2026-05-07 15:12 48.69087 9.21026 1280 ft 0 kts 137°
2026-05-07 15:13 48.69073 9.21048 1280 ft 0 kts 135°
2026-05-07 15:13 48.69055 9.21075 1280 ft 13 kts 135°
2026-05-07 15:13 48.69043 9.21114 1280 ft 15 kts 83°
2026-05-07 15:13 48.69092 9.21376 1280 ft 29 kts 73°
2026-05-07 15:14 48.69143 9.21645 1280 ft 25 kts 75°
2026-05-07 15:14 48.69196 9.21917 1280 ft 32 kts 76°
2026-05-07 15:14 48.69258 9.22249 1280 ft 29 kts 73°
2026-05-07 15:14 48.69291 9.22420 1280 ft 12 kts 80°
2026-05-07 15:15 48.69220 9.22492 1280 ft 16 kts 164°
2026-05-07 15:15 48.69141 9.22527 1280 ft 0 kts 162°
2026-05-07 15:18 48.69080 9.22550 1280 ft 15 kts 179°
2026-05-07 15:18 48.69046 9.22509 1280 ft 0 kts 259°
2026-05-07 15:19 48.69046 9.22506 1280 ft 1 kts 258°
2026-05-07 15:19 48.69011 9.22317 1280 ft 48 kts 255°
2026-05-07 15:19 48.68873 9.21640 1353 ft 75 kts 258°
2026-05-07 15:19 48.68722 9.20864 1549 ft 80 kts 259°
2026-05-07 15:20 48.68531 9.19787 1948 ft 79 kts 260°
2026-05-07 15:20 48.68421 9.19258 2170 ft 85 kts 245°
2026-05-07 15:20 48.67757 9.18994 2224 ft 119 kts 170°
2026-05-07 15:20 48.66941 9.19421 2361 ft 135 kts 139°
2026-05-07 15:21 48.66715 9.20726 2375 ft 131 kts 68°
2026-05-07 15:21 48.67038 9.22057 2393 ft 137 kts 62°
2026-05-07 15:21 48.67306 9.23393 2564 ft 131 kts 88°
2026-05-07 15:21 48.67228 9.24642 2553 ft 115 kts 98°
2026-05-07 15:22 48.66689 9.25328 2375 ft 104 kts 190°
2026-05-07 15:22 48.66439 9.24592 2312 ft 92 kts 312°
2026-05-07 15:22 48.67018 9.24723 2344 ft 106 kts 44°
2026-05-07 15:22 48.67347 9.25790 2280 ft 115 kts 59°
2026-05-07 15:23 48.67747 9.26886 2134 ft 123 kts 53°
2026-05-07 15:23 48.68356 9.27585 1933 ft 120 kts 346°
2026-05-07 15:23 48.69130 9.27164 1827 ft 115 kts 337°
2026-05-07 15:23 48.69662 9.26415 1556 ft 115 kts 278°
2026-05-07 15:24 48.69550 9.25212 1376 ft 115 kts 257°
2026-05-07 15:24 48.69372 9.24248 1280 ft 74 kts 259°
2026-05-07 15:24 48.69231 9.23493 1306 ft 85 kts 259°
2026-05-07 15:24 48.69054 9.22569 1447 ft 94 kts 256°
2026-05-07 15:25 48.68862 9.21583 1671 ft 103 kts 258°
2026-05-07 15:25 48.68658 9.20473 1891 ft 115 kts 256°
2026-05-07 15:25 48.68037 9.19768 2145 ft 133 kts 180°
2026-05-07 15:25 48.67121 9.20137 2314 ft 140 kts 162°
2026-05-07 15:26 48.66432 9.21120 2331 ft 151 kts 97°
2026-05-07 15:26 48.66824 9.22564 2255 ft 153 kts 51°
2026-05-07 15:26 48.67199 9.24051 2395 ft 156 kts 73°
2026-05-07 15:26 48.67467 9.25650 2391 ft 161 kts 71°
2026-05-07 15:27 48.67790 9.27299 2274 ft 167 kts 63°
2026-05-07 15:27 48.68755 9.27735 1971 ft 167 kts 335°
2026-05-07 15:27 48.69690 9.26865 1908 ft 150 kts 292°
2026-05-07 15:27 48.69615 9.25585 1544 ft 101 kts 262°
2026-05-07 15:28 48.69444 9.24621 1347 ft 90 kts 258°
2026-05-07 15:28 48.69298 9.23830 1280 ft 63 kts 250°
2026-05-07 15:28 48.69151 9.23102 1334 ft 77 kts 257°
2026-05-07 15:28 48.69001 9.22296 1426 ft 83 kts 259°
2026-05-07 15:29 48.68825 9.21386 1600 ft 98 kts 254°
2026-05-07 15:29 48.68573 9.20347 1807 ft 113 kts 243°
2026-05-07 15:29 48.67769 9.20293 1988 ft 133 kts 165°
2026-05-07 15:29 48.67211 9.21215 2272 ft 127 kts 85°
2026-05-07 15:30 48.67425 9.22433 2379 ft 110 kts 67°
2026-05-07 15:30 48.67616 9.23502 2272 ft 98 kts 69°
2026-05-07 15:30 48.67784 9.24490 2175 ft 98 kts 68°
2026-05-07 15:30 48.67966 9.25496 2168 ft 104 kts 68°
2026-05-07 15:31 48.68383 9.26351 2047 ft 106 kts
2026-05-07 15:31 48.69119 9.26179 1780 ft 103 kts 343°
2026-05-07 15:31 48.69671 9.25682 1676 ft 86 kts 287°
2026-05-07 15:31 48.69451 9.24720 1403 ft 95 kts 258°
2026-05-07 15:32 48.69293 9.23812 1284 ft 80 kts 263°
2026-05-07 15:32 48.69210 9.23220 1280 ft 17 kts 337°
2026-05-07 15:32 48.69301 9.23178 1280 ft 15 kts 346°
2026-05-07 15:32 48.69337 9.23154 1280 ft 8 kts 306°
2026-05-07 15:33 48.69320 9.23015 1280 ft 21 kts 253°
2026-05-07 15:33 48.69275 9.22781 1280 ft 28 kts 255°
2026-05-07 15:33 48.69234 9.22567 1280 ft 0 kts 251°
2026-05-07 15:33 48.69230 9.22550 1280 ft 6 kts 257°
2026-05-07 15:34 48.69213 9.22432 1280 ft 20 kts 246°
2026-05-07 15:34 48.69152 9.22109 1280 ft 34 kts 254°
2026-05-07 15:34 48.69089 9.21799 1280 ft 30 kts 249°
2026-05-07 15:34 48.69038 9.21527 1280 ft 20 kts 252°
2026-05-07 15:35 48.69015 9.21307 1280 ft 21 kts 282°
2026-05-07 15:35 48.69053 9.21179 1280 ft 10 kts 32°
2026-05-07 15:35 48.69099 9.21304 1280 ft 10 kts 13°
2026-05-07 15:35 48.69154 9.21310 1280 ft 9 kts 81°
2026-05-07 15:36 48.69182 9.21448 1280 ft 13 kts 17°
2026-05-07 15:36 48.69194 9.21447 1280 ft 0 kts 341°